sensor_id;sensor_type;location;lat;lon;timestamp;P1;durP1;ratioP1;P2;durP2;ratioP2
6626;SDS011;3349;49.830;8.748;2022-10-20T00:00:51;18.30;;;11.48;;
6626;SDS011;3349;49.830;8.748;2022-10-20T00:03:18;15.45;;;11.65;;
6626;SDS011;3349;49.830;8.748;2022-10-20T00:05:44;17.92;;;12.32;;
6626;SDS011;3349;49.830;8.748;2022-10-20T00:08:11;16.42;;;11.90;;
6626;SDS011;3349;49.830;8.748;2022-10-20T00:10:38;21.20;;;11.82;;
6626;SDS011;3349;49.830;8.748;2022-10-20T00:13:04;20.20;;;11.77;;
6626;SDS011;3349;49.830;8.748;2022-10-20T00:15:32;16.95;;;11.60;;
6626;SDS011;3349;49.830;8.748;2022-10-20T00:17:59;15.30;;;11.43;;
6626;SDS011;3349;49.830;8.748;2022-10-20T00:20:26;18.85;;;12.20;;
6626;SDS011;3349;49.830;8.748;2022-10-20T00:22:53;13.90;;;10.70;;
6626;SDS011;3349;49.830;8.748;2022-10-20T00:25:19;16.20;;;12.00;;
6626;SDS011;3349;49.830;8.748;2022-10-20T00:27:46;19.02;;;11.73;;
6626;SDS011;3349;49.830;8.748;2022-10-20T00:30:13;21.52;;;11.50;;
6626;SDS011;3349;49.830;8.748;2022-10-20T00:32:41;20.25;;;11.93;;
6626;SDS011;3349;49.830;8.748;2022-10-20T00:35:08;15.73;;;11.02;;
6626;SDS011;3349;49.830;8.748;2022-10-20T00:37:34;16.70;;;11.18;;
6626;SDS011;3349;49.830;8.748;2022-10-20T00:40:01;14.90;;;11.48;;
6626;SDS011;3349;49.830;8.748;2022-10-20T00:42:28;14.68;;;11.23;;
6626;SDS011;3349;49.830;8.748;2022-10-20T00:44:56;12.45;;;10.70;;
6626;SDS011;3349;49.830;8.748;2022-10-20T00:47:32;14.93;;;11.32;;
6626;SDS011;3349;49.830;8.748;2022-10-20T00:50:04;16.75;;;10.68;;
6626;SDS011;3349;49.830;8.748;2022-10-20T00:52:33;13.52;;;10.57;;
6626;SDS011;3349;49.830;8.748;2022-10-20T00:55:02;15.52;;;10.95;;
6626;SDS011;3349;49.830;8.748;2022-10-20T00:57:29;15.13;;;9.90;;
6626;SDS011;3349;49.830;8.748;2022-10-20T00:59:56;16.27;;;10.88;;
6626;SDS011;3349;49.830;8.748;2022-10-20T01:02:23;12.45;;;10.63;;
6626;SDS011;3349;49.830;8.748;2022-10-20T01:04:50;15.30;;;10.25;;
6626;SDS011;3349;49.830;8.748;2022-10-20T01:07:18;15.48;;;10.98;;
6626;SDS011;3349;49.830;8.748;2022-10-20T01:09:45;14.68;;;10.27;;
6626;SDS011;3349;49.830;8.748;2022-10-20T01:12:14;14.25;;;10.40;;
6626;SDS011;3349;49.830;8.748;2022-10-20T01:14:52;12.80;;;10.50;;
6626;SDS011;3349;49.830;8.748;2022-10-20T01:17:27;15.45;;;10.45;;
6626;SDS011;3349;49.830;8.748;2022-10-20T01:26:21;15.52;;;9.75;;
6626;SDS011;3349;49.830;8.748;2022-10-20T01:29:07;16.42;;;10.25;;
6626;SDS011;3349;49.830;8.748;2022-10-20T01:31:39;15.15;;;9.90;;
6626;SDS011;3349;49.830;8.748;2022-10-20T01:34:10;14.93;;;9.75;;
6626;SDS011;3349;49.830;8.748;2022-10-20T01:36:44;14.40;;;10.75;;
6626;SDS011;3349;49.830;8.748;2022-10-20T01:39:16;15.20;;;10.00;;
6626;SDS011;3349;49.830;8.748;2022-10-20T01:41:50;12.77;;;9.95;;
6626;SDS011;3349;49.830;8.748;2022-10-20T01:44:23;11.75;;;9.88;;
6626;SDS011;3349;49.830;8.748;2022-10-20T01:46:52;12.23;;;10.35;;
6626;SDS011;3349;49.830;8.748;2022-10-20T01:49:20;17.33;;;9.63;;
6626;SDS011;3349;49.830;8.748;2022-10-20T01:51:49;13.80;;;9.32;;
6626;SDS011;3349;49.830;8.748;2022-10-20T01:54:20;14.95;;;10.02;;
6626;SDS011;3349;49.830;8.748;2022-10-20T01:56:50;13.70;;;9.98;;
6626;SDS011;3349;49.830;8.748;2022-10-20T01:59:37;13.38;;;10.00;;
6626;SDS011;3349;49.830;8.748;2022-10-20T02:02:21;16.00;;;9.57;;
6626;SDS011;3349;49.830;8.748;2022-10-20T02:05:12;11.80;;;9.95;;
6626;SDS011;3349;49.830;8.748;2022-10-20T02:07:48;13.65;;;10.13;;
6626;SDS011;3349;49.830;8.748;2022-10-20T02:10:19;15.35;;;9.88;;
6626;SDS011;3349;49.830;8.748;2022-10-20T02:12:49;12.18;;;9.85;;
6626;SDS011;3349;49.830;8.748;2022-10-20T02:15:24;12.63;;;9.80;;
6626;SDS011;3349;49.830;8.748;2022-10-20T02:17:54;14.98;;;10.43;;
6626;SDS011;3349;49.830;8.748;2022-10-20T02:20:24;16.90;;;10.27;;
6626;SDS011;3349;49.830;8.748;2022-10-20T02:22:51;14.15;;;10.40;;
6626;SDS011;3349;49.830;8.748;2022-10-20T02:25:19;11.77;;;10.07;;
6626;SDS011;3349;49.830;8.748;2022-10-20T02:27:48;17.10;;;11.18;;
6626;SDS011;3349;49.830;8.748;2022-10-20T02:30:15;13.02;;;10.25;;
6626;SDS011;3349;49.830;8.748;2022-10-20T02:32:46;12.98;;;9.40;;
6626;SDS011;3349;49.830;8.748;2022-10-20T02:35:17;11.95;;;10.00;;
6626;SDS011;3349;49.830;8.748;2022-10-20T02:37:46;14.30;;;10.60;;
6626;SDS011;3349;49.830;8.748;2022-10-20T02:40:14;13.30;;;10.15;;
6626;SDS011;3349;49.830;8.748;2022-10-20T02:42:40;13.63;;;9.52;;
6626;SDS011;3349;49.830;8.748;2022-10-20T02:45:08;15.35;;;10.32;;
6626;SDS011;3349;49.830;8.748;2022-10-20T02:47:35;13.43;;;9.90;;
6626;SDS011;3349;49.830;8.748;2022-10-20T02:50:03;12.98;;;10.30;;
6626;SDS011;3349;49.830;8.748;2022-10-20T02:52:31;17.15;;;10.50;;
6626;SDS011;3349;49.830;8.748;2022-10-20T02:54:59;14.23;;;10.70;;
6626;SDS011;3349;49.830;8.748;2022-10-20T02:57:25;14.30;;;10.65;;
6626;SDS011;3349;49.830;8.748;2022-10-20T02:59:52;15.73;;;10.40;;
6626;SDS011;3349;49.830;8.748;2022-10-20T03:02:19;13.73;;;10.70;;
6626;SDS011;3349;49.830;8.748;2022-10-20T03:04:46;13.05;;;10.68;;
6626;SDS011;3349;49.830;8.748;2022-10-20T03:07:14;13.65;;;10.70;;
6626;SDS011;3349;49.830;8.748;2022-10-20T03:09:41;12.68;;;11.10;;
6626;SDS011;3349;49.830;8.748;2022-10-20T03:12:08;15.45;;;11.45;;
6626;SDS011;3349;49.830;8.748;2022-10-20T03:14:35;17.42;;;12.07;;
6626;SDS011;3349;49.830;8.748;2022-10-20T03:17:01;14.88;;;11.27;;
6626;SDS011;3349;49.830;8.748;2022-10-20T03:19:28;15.00;;;10.43;;
6626;SDS011;3349;49.830;8.748;2022-10-20T03:21:55;14.65;;;11.88;;
6626;SDS011;3349;49.830;8.748;2022-10-20T03:24:23;12.65;;;10.65;;
6626;SDS011;3349;49.830;8.748;2022-10-20T03:26:50;14.80;;;10.35;;
6626;SDS011;3349;49.830;8.748;2022-10-20T03:29:16;16.10;;;10.57;;
6626;SDS011;3349;49.830;8.748;2022-10-20T03:31:43;13.43;;;10.27;;
6626;SDS011;3349;49.830;8.748;2022-10-20T03:34:10;14.20;;;10.73;;
6626;SDS011;3349;49.830;8.748;2022-10-20T03:36:37;16.83;;;11.00;;
6626;SDS011;3349;49.830;8.748;2022-10-20T03:39:04;16.70;;;11.85;;
6626;SDS011;3349;49.830;8.748;2022-10-20T03:41:32;18.08;;;11.13;;
6626;SDS011;3349;49.830;8.748;2022-10-20T03:43:59;16.52;;;11.80;;
6626;SDS011;3349;49.830;8.748;2022-10-20T03:46:26;18.30;;;11.57;;
6626;SDS011;3349;49.830;8.748;2022-10-20T03:48:52;11.27;;;9.57;;
6626;SDS011;3349;49.830;8.748;2022-10-20T03:51:19;16.52;;;11.35;;
6626;SDS011;3349;49.830;8.748;2022-10-20T03:53:46;14.32;;;11.68;;
6626;SDS011;3349;49.830;8.748;2022-10-20T03:56:14;17.15;;;11.65;;
6626;SDS011;3349;49.830;8.748;2022-10-20T03:58:44;14.60;;;10.98;;
6626;SDS011;3349;49.830;8.748;2022-10-20T04:01:12;13.63;;;10.65;;
6626;SDS011;3349;49.830;8.748;2022-10-20T04:03:40;15.18;;;11.25;;
6626;SDS011;3349;49.830;8.748;2022-10-20T04:06:08;16.40;;;10.68;;
6626;SDS011;3349;49.830;8.748;2022-10-20T04:08:35;15.40;;;11.25;;
6626;SDS011;3349;49.830;8.748;2022-10-20T04:11:02;13.05;;;10.48;;
6626;SDS011;3349;49.830;8.748;2022-10-20T04:13:28;15.45;;;11.15;;
6626;SDS011;3349;49.830;8.748;2022-10-20T04:15:56;12.35;;;11.05;;
6626;SDS011;3349;49.830;8.748;2022-10-20T04:18:24;16.77;;;11.07;;
6626;SDS011;3349;49.830;8.748;2022-10-20T04:20:50;19.02;;;12.18;;
6626;SDS011;3349;49.830;8.748;2022-10-20T04:23:17;17.48;;;12.43;;
6626;SDS011;3349;49.830;8.748;2022-10-20T04:25:44;17.10;;;11.38;;
6626;SDS011;3349;49.830;8.748;2022-10-20T04:28:12;17.08;;;11.10;;
6626;SDS011;3349;49.830;8.748;2022-10-20T04:30:40;16.25;;;11.52;;
6626;SDS011;3349;49.830;8.748;2022-10-20T04:33:08;19.50;;;11.98;;
6626;SDS011;3349;49.830;8.748;2022-10-20T04:35:35;17.42;;;12.02;;
6626;SDS011;3349;49.830;8.748;2022-10-20T04:38:02;16.83;;;11.70;;
6626;SDS011;3349;49.830;8.748;2022-10-20T04:40:29;13.65;;;11.32;;
6626;SDS011;3349;49.830;8.748;2022-10-20T04:42:57;17.75;;;11.50;;
6626;SDS011;3349;49.830;8.748;2022-10-20T04:45:24;15.88;;;12.43;;
6626;SDS011;3349;49.830;8.748;2022-10-20T04:47:50;16.08;;;12.52;;
6626;SDS011;3349;49.830;8.748;2022-10-20T04:50:18;18.98;;;12.30;;
6626;SDS011;3349;49.830;8.748;2022-10-20T04:52:45;17.80;;;12.50;;
6626;SDS011;3349;49.830;8.748;2022-10-20T04:55:12;17.50;;;12.50;;
6626;SDS011;3349;49.830;8.748;2022-10-20T04:57:39;15.00;;;12.13;;
6626;SDS011;3349;49.830;8.748;2022-10-20T05:00:06;17.90;;;13.30;;
6626;SDS011;3349;49.830;8.748;2022-10-20T05:02:33;14.20;;;12.57;;
6626;SDS011;3349;49.830;8.748;2022-10-20T05:05:00;18.15;;;13.45;;
6626;SDS011;3349;49.830;8.748;2022-10-20T05:07:29;18.05;;;13.68;;
6626;SDS011;3349;49.830;8.748;2022-10-20T05:09:56;22.30;;;13.82;;
6626;SDS011;3349;49.830;8.748;2022-10-20T05:12:23;16.58;;;13.50;;
6626;SDS011;3349;49.830;8.748;2022-10-20T05:14:49;19.33;;;14.07;;
6626;SDS011;3349;49.830;8.748;2022-10-20T05:17:16;17.73;;;13.73;;
6626;SDS011;3349;49.830;8.748;2022-10-20T05:19:43;21.23;;;13.80;;
6626;SDS011;3349;49.830;8.748;2022-10-20T05:22:10;19.63;;;14.57;;
6626;SDS011;3349;49.830;8.748;2022-10-20T05:24:38;18.88;;;14.77;;
6626;SDS011;3349;49.830;8.748;2022-10-20T05:27:04;19.33;;;14.77;;
6626;SDS011;3349;49.830;8.748;2022-10-20T05:29:31;20.13;;;14.10;;
6626;SDS011;3349;49.830;8.748;2022-10-20T05:31:58;18.55;;;14.95;;
6626;SDS011;3349;49.830;8.748;2022-10-20T05:34:24;21.17;;;16.17;;
6626;SDS011;3349;49.830;8.748;2022-10-20T05:36:51;19.42;;;15.02;;
6626;SDS011;3349;49.830;8.748;2022-10-20T05:39:18;20.73;;;14.68;;
6626;SDS011;3349;49.830;8.748;2022-10-20T05:41:46;18.95;;;15.30;;
6626;SDS011;3349;49.830;8.748;2022-10-20T05:44:13;20.83;;;15.93;;
6626;SDS011;3349;49.830;8.748;2022-10-20T05:46:40;21.00;;;16.33;;
6626;SDS011;3349;49.830;8.748;2022-10-20T05:49:09;23.75;;;16.58;;
6626;SDS011;3349;49.830;8.748;2022-10-20T05:51:39;19.60;;;16.15;;
6626;SDS011;3349;49.830;8.748;2022-10-20T05:54:08;25.50;;;17.58;;
6626;SDS011;3349;49.830;8.748;2022-10-20T05:56:36;20.50;;;16.80;;
6626;SDS011;3349;49.830;8.748;2022-10-20T05:59:04;22.08;;;17.15;;
6626;SDS011;3349;49.830;8.748;2022-10-20T06:01:31;21.00;;;16.95;;
6626;SDS011;3349;49.830;8.748;2022-10-20T06:04:11;22.80;;;17.70;;
6626;SDS011;3349;49.830;8.748;2022-10-20T06:06:38;23.58;;;17.85;;
6626;SDS011;3349;49.830;8.748;2022-10-20T06:09:06;29.25;;;18.40;;
6626;SDS011;3349;49.830;8.748;2022-10-20T06:11:33;27.77;;;18.48;;
6626;SDS011;3349;49.830;8.748;2022-10-20T06:14:00;25.73;;;18.90;;
6626;SDS011;3349;49.830;8.748;2022-10-20T06:16:29;23.35;;;16.98;;
6626;SDS011;3349;49.830;8.748;2022-10-20T06:18:56;21.23;;;16.75;;
6626;SDS011;3349;49.830;8.748;2022-10-20T06:21:24;22.25;;;17.25;;
6626;SDS011;3349;49.830;8.748;2022-10-20T06:23:52;25.23;;;19.10;;
6626;SDS011;3349;49.830;8.748;2022-10-20T06:26:20;27.77;;;18.77;;
6626;SDS011;3349;49.830;8.748;2022-10-20T06:28:49;29.33;;;21.02;;
6626;SDS011;3349;49.830;8.748;2022-10-20T06:31:19;31.75;;;22.48;;
6626;SDS011;3349;49.830;8.748;2022-10-20T06:33:49;27.27;;;21.05;;
6626;SDS011;3349;49.830;8.748;2022-10-20T06:36:16;31.60;;;20.13;;
6626;SDS011;3349;49.830;8.748;2022-10-20T06:38:44;27.30;;;20.02;;
6626;SDS011;3349;49.830;8.748;2022-10-20T06:41:11;25.13;;;19.35;;
6626;SDS011;3349;49.830;8.748;2022-10-20T06:43:40;26.95;;;19.55;;
6626;SDS011;3349;49.830;8.748;2022-10-20T06:46:07;24.95;;;19.35;;
6626;SDS011;3349;49.830;8.748;2022-10-20T06:48:36;23.88;;;18.48;;
6626;SDS011;3349;49.830;8.748;2022-10-20T06:51:05;25.45;;;18.17;;
6626;SDS011;3349;49.830;8.748;2022-10-20T06:53:36;23.25;;;18.50;;
6626;SDS011;3349;49.830;8.748;2022-10-20T06:56:04;22.08;;;17.33;;
6626;SDS011;3349;49.830;8.748;2022-10-20T06:58:32;24.70;;;19.58;;
6626;SDS011;3349;49.830;8.748;2022-10-20T07:01:00;25.63;;;17.83;;
6626;SDS011;3349;49.830;8.748;2022-10-20T07:03:28;25.60;;;17.42;;
6626;SDS011;3349;49.830;8.748;2022-10-20T07:05:56;25.02;;;17.75;;
6626;SDS011;3349;49.830;8.748;2022-10-20T07:08:25;26.52;;;18.50;;
6626;SDS011;3349;49.830;8.748;2022-10-20T07:10:56;25.45;;;18.20;;
6626;SDS011;3349;49.830;8.748;2022-10-20T07:13:24;26.67;;;18.52;;
6626;SDS011;3349;49.830;8.748;2022-10-20T07:15:52;27.00;;;16.90;;
6626;SDS011;3349;49.830;8.748;2022-10-20T07:18:19;24.98;;;18.73;;
6626;SDS011;3349;49.830;8.748;2022-10-20T07:20:46;25.85;;;18.58;;
6626;SDS011;3349;49.830;8.748;2022-10-20T07:23:13;24.23;;;17.75;;
6626;SDS011;3349;49.830;8.748;2022-10-20T07:25:41;22.45;;;17.63;;
6626;SDS011;3349;49.830;8.748;2022-10-20T07:28:08;26.13;;;18.55;;
6626;SDS011;3349;49.830;8.748;2022-10-20T07:30:36;31.65;;;19.25;;
6626;SDS011;3349;49.830;8.748;2022-10-20T07:33:04;24.08;;;17.80;;
6626;SDS011;3349;49.830;8.748;2022-10-20T07:35:31;23.52;;;17.65;;
6626;SDS011;3349;49.830;8.748;2022-10-20T07:37:58;23.17;;;17.67;;
6626;SDS011;3349;49.830;8.748;2022-10-20T07:40:25;24.48;;;17.30;;
6626;SDS011;3349;49.830;8.748;2022-10-20T07:42:53;23.25;;;17.73;;
6626;SDS011;3349;49.830;8.748;2022-10-20T07:45:20;24.83;;;18.05;;
6626;SDS011;3349;49.830;8.748;2022-10-20T07:47:46;23.45;;;17.55;;
6626;SDS011;3349;49.830;8.748;2022-10-20T07:50:13;24.05;;;18.05;;
6626;SDS011;3349;49.830;8.748;2022-10-20T07:52:40;23.45;;;16.73;;
6626;SDS011;3349;49.830;8.748;2022-10-20T07:55:07;22.60;;;17.27;;
6626;SDS011;3349;49.830;8.748;2022-10-20T07:57:34;20.85;;;16.85;;
6626;SDS011;3349;49.830;8.748;2022-10-20T08:00:02;22.38;;;17.58;;
6626;SDS011;3349;49.830;8.748;2022-10-20T08:02:30;22.33;;;16.63;;
6626;SDS011;3349;49.830;8.748;2022-10-20T08:04:57;23.13;;;16.70;;
6626;SDS011;3349;49.830;8.748;2022-10-20T08:07:23;20.23;;;16.45;;
6626;SDS011;3349;49.830;8.748;2022-10-20T08:09:50;24.50;;;17.42;;
6626;SDS011;3349;49.830;8.748;2022-10-20T08:12:17;22.55;;;16.98;;
6626;SDS011;3349;49.830;8.748;2022-10-20T08:14:43;25.20;;;16.98;;
6626;SDS011;3349;49.830;8.748;2022-10-20T08:17:11;23.65;;;17.27;;
6626;SDS011;3349;49.830;8.748;2022-10-20T08:19:38;22.42;;;15.82;;
6626;SDS011;3349;49.830;8.748;2022-10-20T08:22:05;21.77;;;16.58;;
6626;SDS011;3349;49.830;8.748;2022-10-20T08:24:31;24.42;;;17.23;;
6626;SDS011;3349;49.830;8.748;2022-10-20T08:26:59;24.20;;;15.77;;
6626;SDS011;3349;49.830;8.748;2022-10-20T08:29:26;26.80;;;17.33;;
6626;SDS011;3349;49.830;8.748;2022-10-20T08:31:53;27.77;;;16.40;;
6626;SDS011;3349;49.830;8.748;2022-10-20T08:34:21;21.83;;;15.95;;
6626;SDS011;3349;49.830;8.748;2022-10-20T08:36:47;25.73;;;17.60;;
6626;SDS011;3349;49.830;8.748;2022-10-20T08:39:14;22.80;;;17.98;;
6626;SDS011;3349;49.830;8.748;2022-10-20T08:41:42;26.98;;;17.08;;
6626;SDS011;3349;49.830;8.748;2022-10-20T08:44:11;23.88;;;16.23;;
6626;SDS011;3349;49.830;8.748;2022-10-20T08:46:44;23.85;;;17.95;;
6626;SDS011;3349;49.830;8.748;2022-10-20T08:49:12;24.15;;;16.15;;
6626;SDS011;3349;49.830;8.748;2022-10-20T08:51:44;27.02;;;16.33;;
6626;SDS011;3349;49.830;8.748;2022-10-20T08:54:12;20.27;;;16.20;;
6626;SDS011;3349;49.830;8.748;2022-10-20T08:56:41;27.77;;;20.25;;
6626;SDS011;3349;49.830;8.748;2022-10-20T08:59:15;26.30;;;19.83;;
6626;SDS011;3349;49.830;8.748;2022-10-20T09:01:50;24.90;;;17.70;;
6626;SDS011;3349;49.830;8.748;2022-10-20T09:04:19;21.50;;;16.08;;
6626;SDS011;3349;49.830;8.748;2022-10-20T09:06:49;20.50;;;15.30;;
6626;SDS011;3349;49.830;8.748;2022-10-20T09:09:20;18.75;;;14.80;;
6626;SDS011;3349;49.830;8.748;2022-10-20T09:11:49;20.17;;;15.73;;
6626;SDS011;3349;49.830;8.748;2022-10-20T09:14:16;20.05;;;15.65;;
6626;SDS011;3349;49.830;8.748;2022-10-20T09:16:45;22.15;;;15.55;;
6626;SDS011;3349;49.830;8.748;2022-10-20T09:19:14;19.85;;;15.70;;
6626;SDS011;3349;49.830;8.748;2022-10-20T09:21:42;19.65;;;15.20;;
6626;SDS011;3349;49.830;8.748;2022-10-20T09:24:12;21.77;;;15.15;;
6626;SDS011;3349;49.830;8.748;2022-10-20T09:26:41;22.23;;;14.85;;
6626;SDS011;3349;49.830;8.748;2022-10-20T09:29:09;19.30;;;15.10;;
6626;SDS011;3349;49.830;8.748;2022-10-20T09:31:38;16.70;;;14.75;;
6626;SDS011;3349;49.830;8.748;2022-10-20T09:34:22;20.25;;;15.00;;
6626;SDS011;3349;49.830;8.748;2022-10-20T09:36:51;18.35;;;14.43;;
6626;SDS011;3349;49.830;8.748;2022-10-20T09:39:23;18.50;;;14.63;;
6626;SDS011;3349;49.830;8.748;2022-10-20T09:41:58;18.55;;;14.75;;
6626;SDS011;3349;49.830;8.748;2022-10-20T09:44:27;17.42;;;14.45;;
6626;SDS011;3349;49.830;8.748;2022-10-20T09:46:57;16.40;;;14.30;;
6626;SDS011;3349;49.830;8.748;2022-10-20T09:49:27;15.07;;;12.98;;
6626;SDS011;3349;49.830;8.748;2022-10-20T09:51:56;16.55;;;13.48;;
6626;SDS011;3349;49.830;8.748;2022-10-20T09:54:25;15.75;;;13.57;;
6626;SDS011;3349;49.830;8.748;2022-10-20T09:56:53;20.60;;;13.80;;
6626;SDS011;3349;49.830;8.748;2022-10-20T09:59:30;18.42;;;14.02;;
6626;SDS011;3349;49.830;8.748;2022-10-20T10:02:00;15.43;;;12.70;;
6626;SDS011;3349;49.830;8.748;2022-10-20T10:04:30;16.05;;;13.25;;
6626;SDS011;3349;49.830;8.748;2022-10-20T10:06:59;13.43;;;12.02;;
6626;SDS011;3349;49.830;8.748;2022-10-20T10:09:28;15.65;;;12.73;;
6626;SDS011;3349;49.830;8.748;2022-10-20T10:11:59;16.95;;;13.48;;
6626;SDS011;3349;49.830;8.748;2022-10-20T10:14:27;18.52;;;13.55;;
6626;SDS011;3349;49.830;8.748;2022-10-20T10:16:57;16.00;;;13.23;;
6626;SDS011;3349;49.830;8.748;2022-10-20T10:19:25;17.15;;;13.52;;
6626;SDS011;3349;49.830;8.748;2022-10-20T10:21:54;22.35;;;13.93;;
6626;SDS011;3349;49.830;8.748;2022-10-20T10:27:22;16.40;;;13.52;;
6626;SDS011;3349;49.830;8.748;2022-10-20T10:29:50;18.17;;;13.98;;
6626;SDS011;3349;49.830;8.748;2022-10-20T10:32:18;19.00;;;13.25;;
6626;SDS011;3349;49.830;8.748;2022-10-20T10:34:59;18.83;;;14.55;;
6626;SDS011;3349;49.830;8.748;2022-10-20T10:37:32;16.48;;;13.70;;
6626;SDS011;3349;49.830;8.748;2022-10-20T10:40:02;16.08;;;12.93;;
6626;SDS011;3349;49.830;8.748;2022-10-20T10:42:43;16.55;;;13.57;;
6626;SDS011;3349;49.830;8.748;2022-10-20T10:45:22;16.27;;;13.63;;
6626;SDS011;3349;49.830;8.748;2022-10-20T10:51:15;17.52;;;13.70;;
6626;SDS011;3349;49.830;8.748;2022-10-20T10:53:50;18.05;;;14.52;;
6626;SDS011;3349;49.830;8.748;2022-10-20T10:56:30;18.52;;;14.32;;
6626;SDS011;3349;49.830;8.748;2022-10-20T10:59:03;16.63;;;14.15;;
6626;SDS011;3349;49.830;8.748;2022-10-20T11:01:44;16.88;;;13.57;;
6626;SDS011;3349;49.830;8.748;2022-10-20T11:04:35;15.65;;;13.32;;
6626;SDS011;3349;49.830;8.748;2022-10-20T11:07:15;15.02;;;12.82;;
6626;SDS011;3349;49.830;8.748;2022-10-20T11:09:54;14.60;;;11.98;;
6626;SDS011;3349;49.830;8.748;2022-10-20T11:12:39;14.95;;;12.07;;
6626;SDS011;3349;49.830;8.748;2022-10-20T11:15:19;13.85;;;12.48;;
6626;SDS011;3349;49.830;8.748;2022-10-20T11:17:59;15.35;;;12.05;;
6626;SDS011;3349;49.830;8.748;2022-10-20T11:20:38;16.33;;;12.27;;
6626;SDS011;3349;49.830;8.748;2022-10-20T11:23:29;16.98;;;12.60;;
6626;SDS011;3349;49.830;8.748;2022-10-20T11:26:13;15.40;;;13.18;;
6626;SDS011;3349;49.830;8.748;2022-10-20T11:28:47;12.85;;;11.45;;
6626;SDS011;3349;49.830;8.748;2022-10-20T11:31:18;15.82;;;11.95;;
6626;SDS011;3349;49.830;8.748;2022-10-20T11:33:50;16.70;;;12.88;;
6626;SDS011;3349;49.830;8.748;2022-10-20T11:36:22;17.17;;;12.68;;
6626;SDS011;3349;49.830;8.748;2022-10-20T11:38:51;14.35;;;12.48;;
6626;SDS011;3349;49.830;8.748;2022-10-20T11:41:21;15.48;;;12.38;;
6626;SDS011;3349;49.830;8.748;2022-10-20T11:43:56;15.25;;;12.63;;
6626;SDS011;3349;49.830;8.748;2022-10-20T11:46:26;17.33;;;12.82;;
6626;SDS011;3349;49.830;8.748;2022-10-20T11:48:58;14.45;;;11.93;;
6626;SDS011;3349;49.830;8.748;2022-10-20T11:51:31;15.48;;;12.45;;
6626;SDS011;3349;49.830;8.748;2022-10-20T11:54:30;15.57;;;12.65;;
6626;SDS011;3349;49.830;8.748;2022-10-20T11:57:15;19.15;;;12.65;;
6626;SDS011;3349;49.830;8.748;2022-10-20T12:03:00;17.98;;;13.63;;
6626;SDS011;3349;49.830;8.748;2022-10-20T12:06:04;17.30;;;13.73;;
6626;SDS011;3349;49.830;8.748;2022-10-20T12:08:47;15.32;;;13.23;;
6626;SDS011;3349;49.830;8.748;2022-10-20T12:11:27;14.70;;;13.13;;
6626;SDS011;3349;49.830;8.748;2022-10-20T12:14:00;19.60;;;14.50;;
6626;SDS011;3349;49.830;8.748;2022-10-20T12:19:29;15.13;;;13.50;;
6626;SDS011;3349;49.830;8.748;2022-10-20T12:21:58;15.07;;;13.48;;
6626;SDS011;3349;49.830;8.748;2022-10-20T12:24:29;14.90;;;13.05;;
6626;SDS011;3349;49.830;8.748;2022-10-20T12:35:29;19.35;;;14.20;;
6626;SDS011;3349;49.830;8.748;2022-10-20T12:38:17;21.75;;;14.55;;
6626;SDS011;3349;49.830;8.748;2022-10-20T12:40:48;19.83;;;14.20;;
6626;SDS011;3349;49.830;8.748;2022-10-20T12:43:21;19.08;;;13.68;;
6626;SDS011;3349;49.830;8.748;2022-10-20T12:45:51;13.98;;;11.25;;
6626;SDS011;3349;49.830;8.748;2022-10-20T12:48:24;19.70;;;12.82;;
6626;SDS011;3349;49.830;8.748;2022-10-20T12:50:52;15.35;;;12.90;;
6626;SDS011;3349;49.830;8.748;2022-10-20T12:53:27;17.80;;;13.43;;
6626;SDS011;3349;49.830;8.748;2022-10-20T12:55:56;16.40;;;13.07;;
6626;SDS011;3349;49.830;8.748;2022-10-20T12:58:26;15.18;;;13.38;;
6626;SDS011;3349;49.830;8.748;2022-10-20T13:01:05;14.00;;;12.50;;
6626;SDS011;3349;49.830;8.748;2022-10-20T13:03:36;15.82;;;12.80;;
6626;SDS011;3349;49.830;8.748;2022-10-20T13:09:21;16.55;;;12.75;;
6626;SDS011;3349;49.830;8.748;2022-10-20T13:12:01;14.90;;;11.93;;
6626;SDS011;3349;49.830;8.748;2022-10-20T13:14:34;19.60;;;12.88;;
6626;SDS011;3349;49.830;8.748;2022-10-20T13:17:15;17.77;;;13.20;;
6626;SDS011;3349;49.830;8.748;2022-10-20T13:19:51;18.88;;;12.98;;
6626;SDS011;3349;49.830;8.748;2022-10-20T13:25:13;15.85;;;12.65;;
6626;SDS011;3349;49.830;8.748;2022-10-20T13:28:01;18.02;;;13.57;;
6626;SDS011;3349;49.830;8.748;2022-10-20T13:30:29;21.77;;;15.48;;
6626;SDS011;3349;49.830;8.748;2022-10-20T13:32:59;19.35;;;15.43;;
6626;SDS011;3349;49.830;8.748;2022-10-20T13:35:35;18.40;;;15.77;;
6626;SDS011;3349;49.830;8.748;2022-10-20T13:38:09;21.02;;;15.82;;
6626;SDS011;3349;49.830;8.748;2022-10-20T13:40:43;25.30;;;16.60;;
6626;SDS011;3349;49.830;8.748;2022-10-20T13:43:20;17.42;;;15.43;;
6626;SDS011;3349;49.830;8.748;2022-10-20T13:45:59;22.40;;;16.30;;
6626;SDS011;3349;49.830;8.748;2022-10-20T13:48:39;19.33;;;16.00;;
6626;SDS011;3349;49.830;8.748;2022-10-20T13:51:22;23.08;;;16.50;;
6626;SDS011;3349;49.830;8.748;2022-10-20T13:53:51;21.60;;;16.70;;
6626;SDS011;3349;49.830;8.748;2022-10-20T13:56:25;19.85;;;15.43;;
6626;SDS011;3349;49.830;8.748;2022-10-20T13:58:57;23.70;;;16.88;;
6626;SDS011;3349;49.830;8.748;2022-10-20T14:01:25;18.98;;;16.83;;
6626;SDS011;3349;49.830;8.748;2022-10-20T14:03:53;20.77;;;16.70;;
6626;SDS011;3349;49.830;8.748;2022-10-20T14:06:34;20.95;;;16.73;;
6626;SDS011;3349;49.830;8.748;2022-10-20T14:09:09;22.25;;;16.05;;
6626;SDS011;3349;49.830;8.748;2022-10-20T14:11:40;19.20;;;16.95;;
6626;SDS011;3349;49.830;8.748;2022-10-20T14:14:10;22.75;;;15.85;;
6626;SDS011;3349;49.830;8.748;2022-10-20T14:16:39;20.50;;;16.45;;
6626;SDS011;3349;49.830;8.748;2022-10-20T14:19:18;20.25;;;16.00;;
6626;SDS011;3349;49.830;8.748;2022-10-20T14:21:48;24.05;;;16.77;;
6626;SDS011;3349;49.830;8.748;2022-10-20T14:24:19;22.08;;;15.73;;
6626;SDS011;3349;49.830;8.748;2022-10-20T14:26:51;21.17;;;15.88;;
6626;SDS011;3349;49.830;8.748;2022-10-20T14:29:19;20.98;;;16.05;;
6626;SDS011;3349;49.830;8.748;2022-10-20T14:31:49;21.05;;;15.85;;
6626;SDS011;3349;49.830;8.748;2022-10-20T14:34:17;23.25;;;16.95;;
6626;SDS011;3349;49.830;8.748;2022-10-20T14:36:45;19.02;;;15.02;;
6626;SDS011;3349;49.830;8.748;2022-10-20T14:39:20;21.25;;;17.40;;
6626;SDS011;3349;49.830;8.748;2022-10-20T14:41:55;19.58;;;16.85;;
6626;SDS011;3349;49.830;8.748;2022-10-20T14:44:24;20.45;;;17.00;;
6626;SDS011;3349;49.830;8.748;2022-10-20T14:46:53;22.48;;;15.93;;
6626;SDS011;3349;49.830;8.748;2022-10-20T14:49:22;19.40;;;15.77;;
6626;SDS011;3349;49.830;8.748;2022-10-20T14:51:53;20.67;;;16.52;;
6626;SDS011;3349;49.830;8.748;2022-10-20T14:54:27;19.27;;;16.30;;
6626;SDS011;3349;49.830;8.748;2022-10-20T14:57:00;20.15;;;16.23;;
6626;SDS011;3349;49.830;8.748;2022-10-20T14:59:50;23.27;;;16.13;;
6626;SDS011;3349;49.830;8.748;2022-10-20T15:02:20;18.98;;;16.70;;
6626;SDS011;3349;49.830;8.748;2022-10-20T15:04:48;20.17;;;16.35;;
6626;SDS011;3349;49.830;8.748;2022-10-20T15:07:16;21.17;;;15.75;;
6626;SDS011;3349;49.830;8.748;2022-10-20T15:09:47;23.45;;;17.10;;
6626;SDS011;3349;49.830;8.748;2022-10-20T15:12:16;18.02;;;16.00;;
6626;SDS011;3349;49.830;8.748;2022-10-20T15:14:46;22.00;;;17.42;;
6626;SDS011;3349;49.830;8.748;2022-10-20T15:22:57;23.70;;;17.65;;
6626;SDS011;3349;49.830;8.748;2022-10-20T15:25:25;21.35;;;18.25;;
6626;SDS011;3349;49.830;8.748;2022-10-20T15:27:54;22.83;;;18.40;;
6626;SDS011;3349;49.830;8.748;2022-10-20T15:30:22;24.95;;;16.90;;
6626;SDS011;3349;49.830;8.748;2022-10-20T15:32:51;21.88;;;18.00;;
6626;SDS011;3349;49.830;8.748;2022-10-20T15:35:19;23.83;;;16.92;;
6626;SDS011;3349;49.830;8.748;2022-10-20T15:37:48;22.77;;;17.55;;
6626;SDS011;3349;49.830;8.748;2022-10-20T15:40:16;23.52;;;18.25;;
6626;SDS011;3349;49.830;8.748;2022-10-20T15:42:43;21.27;;;18.02;;
6626;SDS011;3349;49.830;8.748;2022-10-20T15:45:11;20.20;;;18.02;;